createdAt,value
2018-04-02T00:00:50.825Z,988.60
2018-04-02T00:01:50.998Z,988.61
2018-04-02T00:02:51.045Z,988.60
2018-04-02T00:03:51.068Z,988.58
2018-04-02T00:04:51.195Z,988.58
2018-04-02T00:05:51.287Z,988.60
2018-04-02T00:06:51.379Z,988.56
2018-04-02T00:07:51.507Z,988.55
2018-04-02T00:08:51.609Z,988.51
2018-04-02T00:09:51.777Z,988.48
2018-04-02T00:10:51.845Z,988.53
2018-04-02T00:11:51.826Z,988.53
2018-04-02T00:12:51.927Z,988.50
2018-04-02T00:13:52.021Z,988.46
2018-04-02T00:14:52.048Z,988.46
2018-04-02T00:15:52.168Z,988.50
2018-04-02T00:16:52.260Z,988.49
2018-04-02T00:17:52.427Z,988.51
2018-04-02T00:18:52.491Z,988.53
2018-04-02T00:19:52.585Z,988.52
2018-04-02T00:20:52.657Z,988.56
2018-04-02T00:21:52.883Z,988.55
2018-04-02T00:22:52.863Z,988.56
2018-04-02T00:23:52.949Z,988.53
2018-04-02T00:24:53.135Z,988.48
2018-04-02T00:25:53.191Z,988.52
2018-04-02T00:26:53.278Z,988.48
2018-04-02T00:27:53.375Z,988.47
2018-04-02T00:28:53.401Z,988.50
2018-04-02T00:29:53.492Z,988.47
2018-04-02T00:30:53.649Z,988.43
2018-04-02T00:31:53.610Z,988.42
2018-04-02T00:32:53.695Z,988.44
2018-04-02T00:33:53.858Z,988.41
2018-04-02T00:34:53.975Z,988.46
2018-04-02T00:35:54.083Z,988.47
2018-04-02T00:36:54.212Z,988.45
2018-04-02T00:37:54.341Z,988.46
2018-04-02T00:38:54.460Z,988.45
2018-04-02T00:39:54.569Z,988.46
2018-04-02T00:40:54.698Z,988.44
2018-04-02T00:41:54.803Z,988.47
2018-04-02T00:42:54.964Z,988.48
2018-04-02T00:43:55.040Z,988.47
2018-04-02T00:44:55.024Z,988.47
2018-04-02T00:45:55.147Z,988.46
2018-04-02T00:46:55.135Z,988.52
2018-04-02T00:47:55.254Z,988.51
2018-04-02T00:48:55.311Z,988.48
2018-04-02T00:49:55.456Z,988.49
2018-04-02T00:50:55.560Z,988.51
2018-04-02T00:51:55.642Z,988.47
2018-04-02T00:52:55.728Z,988.52
2018-04-02T00:53:55.845Z,988.52
2018-04-02T00:54:55.960Z,988.54
2018-04-02T00:55:56.053Z,988.52
2018-04-02T00:56:56.144Z,988.56
2018-04-02T00:57:56.280Z,988.58
2018-04-02T00:58:56.374Z,988.59
2018-04-02T00:59:56.491Z,988.61
2018-04-02T01:00:56.572Z,988.61
2018-04-02T01:01:56.670Z,988.57
2018-04-02T01:02:56.752Z,988.54
2018-04-02T01:03:56.886Z,988.56
2018-04-02T01:04:56.967Z,988.59
2018-04-02T01:05:57.070Z,988.58
2018-04-02T01:06:57.198Z,988.55
2018-04-02T01:07:57.367Z,988.60
2018-04-02T01:08:57.479Z,988.53
2018-04-02T01:09:57.593Z,988.56
2018-04-02T01:10:57.667Z,988.54
2018-04-02T01:11:57.742Z,988.54
2018-04-02T01:12:57.816Z,988.58
2018-04-02T01:13:57.929Z,988.56
2018-04-02T01:14:58.018Z,988.59
2018-04-02T01:15:58.109Z,988.57
2018-04-02T01:16:58.211Z,988.58
2018-04-02T01:17:58.289Z,988.60
2018-04-02T01:18:58.406Z,988.55
2018-04-02T01:19:58.508Z,988.57
2018-04-02T01:20:58.591Z,988.61
2018-04-02T01:21:58.726Z,988.61
2018-04-02T01:22:58.810Z,988.62
2018-04-02T01:23:58.898Z,988.59
2018-04-02T01:24:58.984Z,988.60
2018-04-02T01:25:59.099Z,988.61
2018-04-02T01:26:59.224Z,988.62
2018-04-02T01:27:59.300Z,988.64
2018-04-02T01:28:59.388Z,988.64
2018-04-02T01:29:59.465Z,988.60
2018-04-02T01:30:59.569Z,988.61
2018-04-02T01:31:59.650Z,988.61
2018-04-02T01:32:59.759Z,988.59
2018-04-02T01:33:59.869Z,988.55
2018-04-02T01:34:59.948Z,988.54
2018-04-02T01:36:00.034Z,988.55
2018-04-02T01:37:00.130Z,988.54
2018-04-02T01:38:00.245Z,988.57
2018-04-02T01:39:00.327Z,988.54
2018-04-02T01:40:00.406Z,988.51
2018-04-02T01:41:00.500Z,988.49
2018-04-02T01:42:00.600Z,988.53
2018-04-02T01:43:00.704Z,988.52
2018-04-02T01:44:00.812Z,988.51
2018-04-02T01:45:00.905Z,988.51
2018-04-02T01:46:00.977Z,988.46
2018-04-02T01:47:01.114Z,988.45
2018-04-02T01:48:01.227Z,988.47
2018-04-02T01:49:01.304Z,988.45
2018-04-02T01:50:01.404Z,988.44
2018-04-02T01:51:01.580Z,988.45
2018-04-02T01:52:01.567Z,988.42
2018-04-02T01:53:01.653Z,988.48
2018-04-02T01:54:01.730Z,988.46
2018-04-02T01:55:01.882Z,988.46
2018-04-02T01:56:01.963Z,988.47
2018-04-02T01:57:02.090Z,988.47
2018-04-02T01:58:02.173Z,988.46
2018-04-02T01:59:02.295Z,988.48
2018-04-02T02:00:02.508Z,988.48
2018-04-02T02:01:02.411Z,988.48
2018-04-02T02:02:02.549Z,988.48
2018-04-02T02:03:02.637Z,988.49
2018-04-02T02:04:02.748Z,988.49
2018-04-02T02:05:02.827Z,988.47
2018-04-02T02:06:02.955Z,988.47
2018-04-02T02:07:02.969Z,988.45
2018-04-02T02:08:03.111Z,988.45
2018-04-02T02:09:03.214Z,988.45
2018-04-02T02:10:03.299Z,988.47
2018-04-02T02:11:03.532Z,988.41
2018-04-02T02:12:03.495Z,988.41
2018-04-02T02:13:03.593Z,988.38
2018-04-02T02:14:03.670Z,988.40
2018-04-02T02:15:03.760Z,988.39
2018-04-02T02:16:03.913Z,988.40
2018-04-02T02:17:03.933Z,988.34
2018-04-02T02:18:04.047Z,988.36
2018-04-02T02:19:04.084Z,988.38
2018-04-02T02:20:04.197Z,988.36
2018-04-02T02:21:04.226Z,988.35
2018-04-02T02:22:04.356Z,988.33
2018-04-02T02:23:04.456Z,988.36
2018-04-02T02:24:04.640Z,988.37
2018-04-02T02:25:04.611Z,988.35
2018-04-02T02:26:04.694Z,988.35
2018-04-02T02:27:04.784Z,988.34
2018-04-02T02:28:04.882Z,988.36
2018-04-02T02:29:05.013Z,988.36
2018-04-02T02:30:05.105Z,988.34
2018-04-02T02:31:05.189Z,988.32
2018-04-02T02:32:05.270Z,988.30
2018-04-02T02:33:05.364Z,988.30
2018-04-02T02:34:05.449Z,988.35
2018-04-02T02:35:05.544Z,988.31
2018-04-02T02:36:05.729Z,988.33
2018-04-02T02:37:05.714Z,988.36
2018-04-02T02:38:05.805Z,988.33
2018-04-02T02:39:05.898Z,988.33
2018-04-02T02:40:06.016Z,988.31
2018-04-02T02:41:06.156Z,988.31
2018-04-02T02:42:06.262Z,988.34
2018-04-02T02:43:06.350Z,988.30
2018-04-02T02:44:06.447Z,988.32
2018-04-02T02:45:06.525Z,988.31
2018-04-02T02:46:06.615Z,988.34
2018-04-02T02:47:06.701Z,988.29
2018-04-02T02:48:06.792Z,988.29
2018-04-02T02:49:06.886Z,988.29
2018-04-02T02:50:06.971Z,988.31
2018-04-02T02:51:07.055Z,988.26
2018-04-02T02:52:07.141Z,988.27
2018-04-02T02:53:07.229Z,988.21
2018-04-02T02:54:07.338Z,988.19
2018-04-02T02:55:07.420Z,988.18
2018-04-02T02:56:07.498Z,988.16
2018-04-02T02:57:07.595Z,988.11
2018-04-02T02:58:07.678Z,988.11
2018-04-02T02:59:07.774Z,988.12
2018-04-02T03:00:07.861Z,988.10
2018-04-02T03:01:07.959Z,988.08
2018-04-02T03:02:08.039Z,988.12
2018-04-02T03:03:08.135Z,988.13
2018-04-02T03:04:08.228Z,988.13
2018-04-02T03:05:08.318Z,988.17
2018-04-02T03:06:08.410Z,988.14
2018-04-02T03:07:08.501Z,988.12
2018-04-02T03:08:08.595Z,988.15
2018-04-02T03:09:08.690Z,988.11
2018-04-02T03:10:08.777Z,988.12
2018-04-02T03:11:08.858Z,988.12
2018-04-02T03:12:08.953Z,988.12
2018-04-02T03:13:09.047Z,988.13
2018-04-02T03:14:09.128Z,988.12
2018-04-02T03:15:09.219Z,988.11
2018-04-02T03:16:09.304Z,988.13
2018-04-02T03:17:09.395Z,988.13
2018-04-02T03:18:09.486Z,988.16
2018-04-02T03:19:09.575Z,988.19
2018-04-02T03:20:09.663Z,988.17
2018-04-02T03:21:09.752Z,988.23
2018-04-02T03:22:09.842Z,988.26
2018-04-02T03:23:09.928Z,988.25
2018-04-02T03:24:10.018Z,988.27
2018-04-02T03:25:10.106Z,988.21
2018-04-02T03:26:10.192Z,988.20
2018-04-02T03:27:10.285Z,988.20
2018-04-02T03:28:10.389Z,988.17
2018-04-02T03:29:10.484Z,988.14
2018-04-02T03:30:10.578Z,988.14
2018-04-02T03:31:10.655Z,988.13
2018-04-02T03:32:10.741Z,988.14
2018-04-02T03:33:10.832Z,988.17
2018-04-02T03:34:10.919Z,988.16
2018-04-02T03:35:11.009Z,988.17
2018-04-02T03:36:11.100Z,988.21
2018-04-02T03:37:11.196Z,988.19
2018-04-02T03:38:11.279Z,988.18
2018-04-02T03:39:11.370Z,988.20
2018-04-02T03:40:11.461Z,988.23
2018-04-02T03:41:11.544Z,988.21
2018-04-02T03:42:11.636Z,988.27
2018-04-02T03:43:11.726Z,988.25
2018-04-02T03:44:11.815Z,988.27
2018-04-02T03:45:11.905Z,988.31
2018-04-02T03:46:11.992Z,988.28
2018-04-02T03:47:12.082Z,988.32
2018-04-02T03:48:12.170Z,988.31
2018-04-02T03:49:12.255Z,988.26
2018-04-02T03:50:12.347Z,988.20
2018-04-02T03:51:12.439Z,988.19
2018-04-02T03:52:12.575Z,988.25
2018-04-02T03:53:12.662Z,988.24
2018-04-02T03:54:12.747Z,988.22
2018-04-02T03:55:12.837Z,988.20
2018-04-02T03:56:12.926Z,988.21
2018-04-02T03:57:13.012Z,988.15
2018-04-02T03:58:13.103Z,988.16
2018-04-02T03:59:13.194Z,988.14
2018-04-02T04:00:13.270Z,988.06
2018-04-02T04:01:13.375Z,988.09
2018-04-02T04:02:13.462Z,988.13
2018-04-02T04:03:13.557Z,988.11
2018-04-02T04:04:13.645Z,988.11
2018-04-02T04:05:13.737Z,988.17
2018-04-02T04:06:13.840Z,988.14
2018-04-02T04:07:13.935Z,988.13
2018-04-02T04:08:14.020Z,988.14
2018-04-02T04:09:14.113Z,988.18
2018-04-02T04:10:14.201Z,988.16
2018-04-02T04:11:14.297Z,988.15
2018-04-02T04:12:14.411Z,988.17
2018-04-02T04:13:14.476Z,988.15
2018-04-02T04:14:14.562Z,988.15
2018-04-02T04:15:14.650Z,988.12
2018-04-02T04:16:14.737Z,988.17
2018-04-02T04:17:14.849Z,988.12
2018-04-02T04:18:14.917Z,988.12
2018-04-02T04:19:14.996Z,988.14
2018-04-02T04:20:15.084Z,988.12
2018-04-02T04:21:15.171Z,988.11
2018-04-02T04:22:15.265Z,988.03
2018-04-02T04:23:15.356Z,988.04
2018-04-02T04:24:15.446Z,988.02
2018-04-02T04:25:15.534Z,988.08
2018-04-02T04:26:15.621Z,988.09
2018-04-02T04:27:15.711Z,988.08
2018-04-02T04:28:15.802Z,988.08
2018-04-02T04:29:15.892Z,988.05
2018-04-02T04:30:15.984Z,988.04
2018-04-02T04:31:16.084Z,988.02
2018-04-02T04:32:16.176Z,988.06
2018-04-02T04:33:16.264Z,988.04
2018-04-02T04:34:16.353Z,988.05
2018-04-02T04:35:16.441Z,988.01
2018-04-02T04:36:16.531Z,987.97
2018-04-02T04:37:16.620Z,987.99
2018-04-02T04:38:16.712Z,988.02
2018-04-02T04:39:16.796Z,988.08
2018-04-02T04:40:16.931Z,988.05
2018-04-02T04:41:16.975Z,988.05
2018-04-02T04:42:17.066Z,988.05
2018-04-02T04:43:17.156Z,988.04
2018-04-02T04:44:17.238Z,988.05
2018-04-02T04:45:17.342Z,988.01
2018-04-02T04:46:17.429Z,987.98
2018-04-02T04:47:17.524Z,987.99
2018-04-02T04:48:17.611Z,987.97
2018-04-02T04:49:17.699Z,988.04
2018-04-02T04:50:17.810Z,987.97
2018-04-02T04:51:17.898Z,987.94
2018-04-02T04:52:17.992Z,987.91
2018-04-02T04:53:18.080Z,987.91
2018-04-02T04:54:18.167Z,987.94
2018-04-02T04:55:18.258Z,987.97
2018-04-02T04:56:18.347Z,988.02
2018-04-02T04:57:18.436Z,988.00
2018-04-02T04:58:18.524Z,988.04
2018-04-02T04:59:18.615Z,988.02
2018-04-02T05:00:18.698Z,988.02
2018-04-02T05:01:18.789Z,988.01
2018-04-02T05:02:18.879Z,988.03
2018-04-02T05:03:18.972Z,988.00
2018-04-02T05:04:19.059Z,987.99
2018-04-02T05:05:19.147Z,987.97
2018-04-02T05:06:19.235Z,987.97
2018-04-02T05:07:19.324Z,987.94
2018-04-02T05:08:20.164Z,987.99
2018-04-02T05:09:20.123Z,987.98
2018-04-02T05:10:19.927Z,987.98
2018-04-02T05:11:19.689Z,987.98
2018-04-02T05:12:19.898Z,987.97
2018-04-02T05:13:19.862Z,987.97
2018-04-02T05:14:19.908Z,987.97
2018-04-02T05:15:20.148Z,988.01
2018-04-02T05:16:20.118Z,988.04
2018-04-02T05:17:20.272Z,988.05
2018-04-02T05:18:20.383Z,988.08
2018-04-02T05:19:20.458Z,988.05
2018-04-02T05:20:20.570Z,988.05
2018-04-02T05:21:20.707Z,988.05
2018-04-02T05:22:20.792Z,988.08
2018-04-02T05:23:21.014Z,988.06
2018-04-02T05:24:21.177Z,988.07
2018-04-02T05:25:21.140Z,988.06
2018-04-02T05:26:21.237Z,988.07
2018-04-02T05:27:21.364Z,988.02
2018-04-02T05:28:21.487Z,988.04
2018-04-02T05:29:21.441Z,988.09
2018-04-02T05:30:21.483Z,988.03
2018-04-02T05:31:21.564Z,988.09
2018-04-02T05:32:21.679Z,988.04
2018-04-02T05:33:21.743Z,988.00
2018-04-02T05:34:21.829Z,988.00
2018-04-02T05:35:21.917Z,987.96
2018-04-02T05:36:22.058Z,987.99
2018-04-02T05:37:22.150Z,988.01
2018-04-02T05:38:22.198Z,987.94
2018-04-02T05:39:22.271Z,987.91
2018-04-02T05:40:22.341Z,987.91
2018-04-02T05:41:22.431Z,987.95
2018-04-02T05:42:22.549Z,987.93
2018-04-02T05:43:22.667Z,987.94
2018-04-02T05:44:22.791Z,987.94
2018-04-02T05:45:22.880Z,987.98
2018-04-02T05:46:22.997Z,988.01
2018-04-02T05:47:23.095Z,988.01
2018-04-02T05:48:23.104Z,988.04
2018-04-02T05:49:23.203Z,988.05
2018-04-02T05:50:23.285Z,988.09
2018-04-02T05:51:23.361Z,988.12
2018-04-02T05:52:23.614Z,988.09
2018-04-02T05:53:23.610Z,988.10
2018-04-02T05:54:23.745Z,988.09
2018-04-02T05:55:23.912Z,988.14
2018-04-02T05:56:23.872Z,988.13
2018-04-02T05:57:24.019Z,988.17
2018-04-02T05:58:24.103Z,988.18
2018-04-02T05:59:24.206Z,988.14
2018-04-02T06:00:24.304Z,988.15
2018-04-02T06:01:24.470Z,988.19
2018-04-02T06:02:24.543Z,988.21
2018-04-02T06:03:24.660Z,988.18
2018-04-02T06:04:24.797Z,988.18
2018-04-02T06:05:24.833Z,988.17
2018-04-02T06:06:24.929Z,988.17
2018-04-02T06:07:25.014Z,988.21
2018-04-02T06:08:25.112Z,988.19
2018-04-02T06:09:25.210Z,988.18
2018-04-02T06:10:25.356Z,988.17
2018-04-02T06:11:25.336Z,988.18
2018-04-02T06:12:25.430Z,988.16
2018-04-02T06:13:25.517Z,988.21
2018-04-02T06:14:25.627Z,988.22
2018-04-02T06:15:25.732Z,988.18
2018-04-02T06:16:25.823Z,988.17
2018-04-02T06:17:25.949Z,988.12
2018-04-02T06:18:26.040Z,988.17
2018-04-02T06:19:26.152Z,988.10
2018-04-02T06:20:26.239Z,988.13
2018-04-02T06:21:26.333Z,988.12
2018-04-02T06:22:26.483Z,988.09
2018-04-02T06:23:26.532Z,988.05
2018-04-02T06:24:26.643Z,988.08
2018-04-02T06:25:26.736Z,988.08
2018-04-02T06:26:26.848Z,988.11
2018-04-02T06:27:26.953Z,988.11
2018-04-02T06:28:27.053Z,988.09
2018-04-02T06:29:27.138Z,988.12
2018-04-02T06:30:27.224Z,988.11
2018-04-02T06:31:27.316Z,988.07
2018-04-02T06:32:27.408Z,988.09
2018-04-02T06:33:27.516Z,988.04
2018-04-02T06:34:27.626Z,988.05
2018-04-02T06:35:27.717Z,988.04
2018-04-02T06:36:27.829Z,988.07
2018-04-02T06:37:27.933Z,988.10
2018-04-02T06:38:28.009Z,988.10
2018-04-02T06:39:28.152Z,988.04
2018-04-02T06:40:28.232Z,988.03
2018-04-02T06:41:28.313Z,988.00
2018-04-02T06:42:28.470Z,988.03
2018-04-02T06:43:28.567Z,988.02
2018-04-02T06:44:28.648Z,988.06
2018-04-02T06:45:28.740Z,988.07
2018-04-02T06:46:28.842Z,988.02
2018-04-02T06:47:28.949Z,988.05
2018-04-02T06:48:29.035Z,988.04
2018-04-02T06:49:29.113Z,988.05
2018-04-02T06:50:29.196Z,988.04
2018-04-02T06:51:29.287Z,988.07
2018-04-02T06:52:29.396Z,988.05
2018-04-02T06:53:29.493Z,988.07
2018-04-02T06:54:29.667Z,988.04
2018-04-02T06:55:29.689Z,988.02
2018-04-02T06:56:29.779Z,988.03
2018-04-02T06:57:29.873Z,988.03
2018-04-02T06:58:29.955Z,988.07
2018-04-02T06:59:30.046Z,988.06
2018-04-02T07:00:30.134Z,988.05
2018-04-02T07:01:30.217Z,988.05
2018-04-02T07:02:30.319Z,988.09
2018-04-02T07:03:30.440Z,988.04
2018-04-02T07:04:30.557Z,988.07
2018-04-02T07:05:30.637Z,988.09
2018-04-02T07:06:30.742Z,988.07
2018-04-02T07:07:30.835Z,988.04
2018-04-02T07:08:30.942Z,988.09
2018-04-02T07:09:31.093Z,988.07
2018-04-02T07:10:31.178Z,988.12
2018-04-02T07:11:31.276Z,988.03
2018-04-02T07:12:31.370Z,988.02
2018-04-02T07:13:31.530Z,988.05
2018-04-02T07:14:31.578Z,988.00
2018-04-02T07:15:31.682Z,988.04
2018-04-02T07:16:31.779Z,988.05
2018-04-02T07:17:31.889Z,988.06
2018-04-02T07:18:32.002Z,988.05
2018-04-02T07:19:32.102Z,988.06
2018-04-02T07:20:32.181Z,988.03
2018-04-02T07:21:32.277Z,988.03
2018-04-02T07:22:32.357Z,988.07
2018-04-02T07:23:32.460Z,988.06
2018-04-02T07:24:32.572Z,988.08
2018-04-02T07:25:32.644Z,988.02
2018-04-02T07:26:32.767Z,988.05
2018-04-02T07:27:32.847Z,988.05
2018-04-02T07:28:32.934Z,988.02
2018-04-02T07:29:33.057Z,988.03
2018-04-02T07:30:33.148Z,988.01
2018-04-02T07:31:33.297Z,988.05
2018-04-02T07:32:33.379Z,988.06
2018-04-02T07:33:33.482Z,988.06
2018-04-02T07:34:33.574Z,988.09
2018-04-02T07:35:33.661Z,988.07
2018-04-02T07:36:33.750Z,988.03
2018-04-02T07:37:33.845Z,988.04
2018-04-02T07:38:33.966Z,988.01
2018-04-02T07:39:34.055Z,988.02
2018-04-02T07:40:34.149Z,988.03
2018-04-02T07:41:34.245Z,988.06
2018-04-02T07:42:34.335Z,988.01
2018-04-02T07:43:34.484Z,988.07
2018-04-02T07:44:34.572Z,988.06
2018-04-02T07:45:34.673Z,988.05
2018-04-02T07:46:34.760Z,988.01
2018-04-02T07:47:34.848Z,987.98
2018-04-02T07:48:34.944Z,987.97
2018-04-02T07:49:35.031Z,987.94
2018-04-02T07:50:35.171Z,987.97
2018-04-02T07:51:35.294Z,987.96
2018-04-02T07:52:35.288Z,987.95
2018-04-02T07:53:35.397Z,987.98
2018-04-02T07:54:35.499Z,987.91
2018-04-02T07:55:35.578Z,987.89
2018-04-02T07:56:35.669Z,987.92
2018-04-02T07:57:35.764Z,987.92
2018-04-02T07:58:35.863Z,987.95
2018-04-02T07:59:35.953Z,987.93
2018-04-02T08:00:36.044Z,987.95
2018-04-02T08:01:36.138Z,987.95
2018-04-02T08:02:36.230Z,987.93
2018-04-02T08:03:36.316Z,987.94
2018-04-02T08:04:36.419Z,987.98
2018-04-02T08:05:36.502Z,987.93
2018-04-02T08:06:36.586Z,987.95
2018-04-02T08:07:36.685Z,987.97
2018-04-02T08:08:36.783Z,987.97
2018-04-02T08:09:36.890Z,987.92
2018-04-02T08:10:37.601Z,987.95
2018-04-02T08:11:37.075Z,987.92
2018-04-02T08:12:37.173Z,987.91
2018-04-02T08:13:37.276Z,987.89
2018-04-02T08:14:37.372Z,987.92
2018-04-02T08:15:37.463Z,987.93
2018-04-02T08:16:37.558Z,987.90
2018-04-02T08:17:37.651Z,987.94
2018-04-02T08:18:37.747Z,987.95
2018-04-02T08:19:37.841Z,987.95
2018-04-02T08:20:37.930Z,987.94
2018-04-02T08:21:38.022Z,987.94
2018-04-02T08:22:38.116Z,987.94
2018-04-02T08:23:38.220Z,987.97
2018-04-02T08:24:38.311Z,987.94
2018-04-02T08:25:38.403Z,987.94
2018-04-02T08:26:38.498Z,987.90
2018-04-02T08:27:38.592Z,987.90
2018-04-02T08:28:38.691Z,987.88
2018-04-02T08:29:38.786Z,987.88
2018-04-02T08:30:38.883Z,987.88
2018-04-02T08:31:38.977Z,987.92
2018-04-02T08:32:39.122Z,987.85
2018-04-02T08:33:39.168Z,987.84
2018-04-02T08:34:39.261Z,987.86
2018-04-02T08:35:39.352Z,987.79
2018-04-02T08:36:39.449Z,987.85
2018-04-02T08:37:39.541Z,987.87
2018-04-02T08:38:39.650Z,987.83
2018-04-02T08:39:39.734Z,987.81
2018-04-02T08:40:39.823Z,987.85
2018-04-02T08:41:39.918Z,987.81
2018-04-02T08:42:40.014Z,987.86
2018-04-02T08:43:40.107Z,987.79
2018-04-02T08:44:40.204Z,987.76
2018-04-02T08:45:40.298Z,987.78
2018-04-02T08:46:40.392Z,987.79
2018-04-02T08:47:40.484Z,987.83
2018-04-02T08:48:40.576Z,987.82
2018-04-02T08:49:40.680Z,987.80
2018-04-02T08:50:40.773Z,987.81
2018-04-02T08:51:40.868Z,987.86
2018-04-02T08:52:40.957Z,987.86
2018-04-02T08:53:41.053Z,987.84
2018-04-02T08:54:41.147Z,987.83
2018-04-02T08:55:41.258Z,987.82
2018-04-02T08:56:41.353Z,987.82
2018-04-02T08:57:41.451Z,987.81
2018-04-02T08:58:41.551Z,987.76
2018-04-02T08:59:41.634Z,987.77
2018-04-02T09:00:41.758Z,987.75
2018-04-02T09:01:41.836Z,987.76
2018-04-02T09:02:41.931Z,987.73
2018-04-02T09:03:42.017Z,987.76
2018-04-02T09:04:42.116Z,987.78
2018-04-02T09:05:42.205Z,987.78
2018-04-02T09:06:42.300Z,987.78
2018-04-02T09:07:42.393Z,987.78
2018-04-02T09:08:42.489Z,987.81
2018-04-02T09:09:42.585Z,987.80
2018-04-02T09:10:42.679Z,987.81
2018-04-02T09:11:42.777Z,987.78
2018-04-02T09:12:42.865Z,987.76
2018-04-02T09:13:42.960Z,987.73
2018-04-02T09:14:43.061Z,987.76
2018-04-02T09:15:43.153Z,987.80
2018-04-02T09:16:43.247Z,987.72
2018-04-02T09:17:43.339Z,987.76
2018-04-02T09:18:43.432Z,987.74
2018-04-02T09:19:43.538Z,987.70
2018-04-02T09:20:43.625Z,987.74
2018-04-02T09:21:43.718Z,987.73
2018-04-02T09:22:43.811Z,987.71
2018-04-02T09:23:43.905Z,987.71
2018-04-02T09:24:44.055Z,987.71
2018-04-02T09:25:44.602Z,987.70
2018-04-02T09:26:44.219Z,987.68
2018-04-02T09:27:44.321Z,987.69
2018-04-02T09:28:44.418Z,987.65
2018-04-02T09:29:44.559Z,987.68
2018-04-02T09:30:44.603Z,987.63
2018-04-02T09:31:44.702Z,987.58
2018-04-02T09:32:44.797Z,987.61
2018-04-02T09:33:44.902Z,987.56
2018-04-02T09:34:44.993Z,987.56
2018-04-02T09:35:45.092Z,987.57
2018-04-02T09:36:45.193Z,987.57
2018-04-02T09:37:45.290Z,987.54
2018-04-02T09:41:17.466Z,987.51
2018-04-02T09:42:17.562Z,987.42
2018-04-02T09:43:17.657Z,987.39
2018-04-02T09:44:17.760Z,987.33
2018-04-02T09:45:17.849Z,987.38
2018-04-02T09:46:17.946Z,987.32
2018-04-02T09:47:18.046Z,987.32
2018-04-02T09:48:18.139Z,987.33
2018-04-02T09:49:18.235Z,987.34
2018-04-02T09:50:18.332Z,987.33
2018-04-02T09:51:18.478Z,987.29
2018-04-02T09:52:18.505Z,987.26
2018-04-02T09:53:18.590Z,987.24
2018-04-02T09:54:18.709Z,987.23
2018-04-02T09:55:18.791Z,987.21
2018-04-02T09:56:18.884Z,987.20
2018-04-02T09:57:18.981Z,987.20
2018-04-02T09:58:19.079Z,987.21
2018-04-02T09:59:19.195Z,987.23
2018-04-02T10:00:19.255Z,987.19
2018-04-02T10:01:19.340Z,987.12
2018-04-02T10:02:19.428Z,987.16
2018-04-02T10:03:20.057Z,987.16
2018-04-02T10:04:19.715Z,987.11
2018-04-02T10:05:19.815Z,987.10
2018-04-02T10:06:19.912Z,987.08
2018-04-02T10:07:19.992Z,987.07
2018-04-02T10:08:20.092Z,986.98
2018-04-02T10:09:20.206Z,986.97
2018-04-02T10:10:20.356Z,986.97
2018-04-02T10:11:20.378Z,987.00
2018-04-02T10:12:20.476Z,987.01
2018-04-02T10:13:20.596Z,986.94
2018-04-02T10:14:20.814Z,986.97
2018-04-02T10:15:20.741Z,986.96
2018-04-02T10:16:20.860Z,986.98
2018-04-02T10:17:20.978Z,986.93
2018-04-02T10:18:21.057Z,986.89
2018-04-02T10:19:21.146Z,986.89
2018-04-02T10:20:21.291Z,986.87
2018-04-02T10:21:21.370Z,986.89
2018-04-02T10:22:21.477Z,986.85
2018-04-02T10:23:21.632Z,986.88
2018-04-02T10:24:21.708Z,986.86
2018-04-02T10:25:21.848Z,986.87
2018-04-02T10:26:21.965Z,986.85
2018-04-02T10:27:22.070Z,986.83
2018-04-02T10:28:22.321Z,986.86
2018-04-02T10:29:22.412Z,986.82
2018-04-02T10:30:22.411Z,986.85
2018-04-02T10:31:22.543Z,986.75
2018-04-02T10:32:22.646Z,986.72
2018-04-02T10:33:22.753Z,986.69
2018-04-02T10:34:22.836Z,986.64
2018-04-02T10:35:22.934Z,986.64
2018-04-02T10:36:23.030Z,986.65
2018-04-02T10:37:23.163Z,986.68
2018-04-02T10:38:23.256Z,986.68
2018-04-02T10:39:23.393Z,986.65
2018-04-02T10:40:23.508Z,986.66
2018-04-02T10:41:23.713Z,986.66
2018-04-02T10:42:23.645Z,986.62
2018-04-02T10:43:23.689Z,986.57
2018-04-02T10:44:23.777Z,986.53
2018-04-02T10:45:23.914Z,986.56
2018-04-02T10:46:24.001Z,986.57
2018-04-02T10:47:24.099Z,986.50
2018-04-02T10:48:24.227Z,986.47
2018-04-02T10:49:24.360Z,986.42
2018-04-02T10:50:24.451Z,986.43
2018-04-02T10:51:24.534Z,986.43
2018-04-02T10:52:24.649Z,986.43
2018-04-02T10:53:24.735Z,986.43
2018-04-02T10:54:24.837Z,986.41
2018-04-02T10:55:24.928Z,986.42
2018-04-02T10:56:25.008Z,986.35
2018-04-02T10:57:25.129Z,986.40
2018-04-02T10:58:25.211Z,986.30
2018-04-02T10:59:25.356Z,986.29
2018-04-02T11:00:25.441Z,986.26
2018-04-02T11:01:25.532Z,986.20
2018-04-02T11:02:25.668Z,986.27
2018-04-02T11:03:25.820Z,986.30
2018-04-02T11:04:25.965Z,986.29
2018-04-02T11:05:26.045Z,986.21
2018-04-02T11:06:26.148Z,986.21
2018-04-02T11:07:26.263Z,986.12
2018-04-02T11:08:26.370Z,986.18
2018-04-02T11:09:26.458Z,986.08
2018-04-02T11:10:26.554Z,986.03
2018-04-02T11:11:26.654Z,986.06
2018-04-02T11:12:26.759Z,986.01
2018-04-02T11:13:26.873Z,986.10
2018-04-02T11:14:26.951Z,986.09
2018-04-02T11:15:27.041Z,986.07
2018-04-02T11:16:27.146Z,986.08
2018-04-02T11:17:27.272Z,986.10
2018-04-02T11:18:27.387Z,986.16
2018-04-02T11:19:27.471Z,986.04
2018-04-02T11:20:27.557Z,986.04
2018-04-02T11:21:27.664Z,986.04
2018-04-02T11:22:27.758Z,986.03
2018-04-02T11:23:27.853Z,985.98
2018-04-02T11:24:27.949Z,986.01
2018-04-02T11:25:28.051Z,986.00
2018-04-02T11:26:28.193Z,985.98
2018-04-02T11:27:28.270Z,985.96
2018-04-02T11:28:28.358Z,985.95
2018-04-02T11:29:28.443Z,986.03
2018-04-02T11:30:28.538Z,986.07
2018-04-02T11:31:28.624Z,986.06
2018-04-02T11:32:28.729Z,986.11
2018-04-02T11:33:28.817Z,985.96
2018-04-02T11:34:28.895Z,985.94
2018-04-02T11:35:28.992Z,985.93
2018-04-02T11:36:29.074Z,986.00
2018-04-02T11:37:29.168Z,985.91
2018-04-02T11:38:29.275Z,985.90
2018-04-02T11:39:29.365Z,985.88
2018-04-02T11:40:29.479Z,985.89
2018-04-02T11:41:29.585Z,985.85
2018-04-02T11:42:29.679Z,985.84
2018-04-02T11:43:29.771Z,985.84
2018-04-02T11:44:29.869Z,985.79
2018-04-02T11:45:29.967Z,985.73
2018-04-02T11:46:30.064Z,985.68
2018-04-02T11:47:30.168Z,985.68
2018-04-02T11:48:30.247Z,985.67
2018-04-02T11:49:30.334Z,985.67
2018-04-02T11:50:30.461Z,985.69
2018-04-02T11:51:30.548Z,985.63
2018-04-02T11:52:30.643Z,985.60
2018-04-02T11:53:30.741Z,985.67
2018-04-02T11:54:30.841Z,985.71
2018-04-02T11:55:30.934Z,985.66
2018-04-02T11:56:31.049Z,985.59
2018-04-02T11:57:31.142Z,985.56
2018-04-02T11:58:31.231Z,985.51
2018-04-02T11:59:31.330Z,985.60
2018-04-02T12:00:31.424Z,985.56
2018-04-02T12:01:31.519Z,985.54
2018-04-02T12:02:31.614Z,985.58
2018-04-02T12:03:31.717Z,985.52
2018-04-02T12:04:31.814Z,985.59
2018-04-02T12:05:31.911Z,985.50
2018-04-02T12:06:32.004Z,985.54
2018-04-02T12:07:32.130Z,985.57
2018-04-02T12:08:32.221Z,985.55
2018-04-02T12:09:32.317Z,985.59
2018-04-02T12:10:32.416Z,985.61
2018-04-02T12:11:32.518Z,985.52
2018-04-02T12:12:32.614Z,985.45
2018-04-02T12:13:32.715Z,985.55
2018-04-02T12:14:32.832Z,985.47
2018-04-02T12:15:32.936Z,985.49
2018-04-02T12:16:33.019Z,985.45
2018-04-02T12:17:33.119Z,985.39
2018-04-02T12:18:33.214Z,985.35
2018-04-02T12:19:33.318Z,985.36
2018-04-02T12:20:33.415Z,985.36
2018-04-02T12:21:33.511Z,985.37
2018-04-02T12:22:33.611Z,985.37
2018-04-02T12:23:33.711Z,985.33
2018-04-02T12:24:33.800Z,985.39
2018-04-02T12:25:33.891Z,985.29
2018-04-02T12:26:33.988Z,985.29
2018-04-02T12:27:34.084Z,985.24
2018-04-02T12:28:34.172Z,985.22
2018-04-02T12:29:34.289Z,985.20
2018-04-02T12:30:34.364Z,985.22
2018-04-02T12:31:34.464Z,985.21
2018-04-02T12:32:34.558Z,985.17